sensor_id;sensor_type;location;lat;lon;timestamp;P1;durP1;ratioP1;P2;durP2;ratioP2
49378;SDS011;35254;47.990;-1.608;2023-12-14T00:01:19;5.55;;;0.98;;
49378;SDS011;35254;47.990;-1.608;2023-12-14T00:03:45;3.20;;;0.93;;
49378;SDS011;35254;47.990;-1.608;2023-12-14T00:06:11;1.67;;;0.70;;
49378;SDS011;35254;47.990;-1.608;2023-12-14T00:08:37;1.55;;;0.77;;
49378;SDS011;35254;47.990;-1.608;2023-12-14T00:11:04;1.02;;;0.60;;
49378;SDS011;35254;47.990;-1.608;2023-12-14T00:13:30;5.35;;;1.00;;
49378;SDS011;35254;47.990;-1.608;2023-12-14T00:15:56;2.72;;;0.80;;
49378;SDS011;35254;47.990;-1.608;2023-12-14T00:18:22;2.63;;;0.60;;
49378;SDS011;35254;47.990;-1.608;2023-12-14T00:20:47;4.50;;;0.90;;
49378;SDS011;35254;47.990;-1.608;2023-12-14T00:23:13;1.63;;;0.70;;
49378;SDS011;35254;47.990;-1.608;2023-12-14T00:25:39;4.82;;;1.20;;
49378;SDS011;35254;47.990;-1.608;2023-12-14T00:28:04;1.30;;;0.63;;
49378;SDS011;35254;47.990;-1.608;2023-12-14T00:30:30;2.30;;;0.98;;
49378;SDS011;35254;47.990;-1.608;2023-12-14T00:32:56;2.50;;;0.80;;
49378;SDS011;35254;47.990;-1.608;2023-12-14T00:35:21;1.75;;;0.98;;
49378;SDS011;35254;47.990;-1.608;2023-12-14T00:37:47;5.53;;;0.90;;
49378;SDS011;35254;47.990;-1.608;2023-12-14T00:40:12;3.83;;;0.77;;
49378;SDS011;35254;47.990;-1.608;2023-12-14T00:42:38;3.75;;;1.58;;
49378;SDS011;35254;47.990;-1.608;2023-12-14T00:45:04;3.67;;;1.33;;
49378;SDS011;35254;47.990;-1.608;2023-12-14T00:47:30;7.10;;;0.90;;
49378;SDS011;35254;47.990;-1.608;2023-12-14T00:49:55;1.55;;;0.88;;
49378;SDS011;35254;47.990;-1.608;2023-12-14T00:52:21;2.53;;;0.57;;
49378;SDS011;35254;47.990;-1.608;2023-12-14T00:54:46;2.47;;;1.00;;
49378;SDS011;35254;47.990;-1.608;2023-12-14T00:57:12;0.90;;;0.57;;
49378;SDS011;35254;47.990;-1.608;2023-12-14T00:59:38;6.10;;;2.15;;
49378;SDS011;35254;47.990;-1.608;2023-12-14T01:02:05;3.47;;;0.88;;
49378;SDS011;35254;47.990;-1.608;2023-12-14T01:04:31;1.13;;;0.70;;
49378;SDS011;35254;47.990;-1.608;2023-12-14T01:06:57;2.75;;;0.80;;
49378;SDS011;35254;47.990;-1.608;2023-12-14T01:09:22;0.63;;;0.50;;
49378;SDS011;35254;47.990;-1.608;2023-12-14T01:11:48;2.10;;;1.02;;
49378;SDS011;35254;47.990;-1.608;2023-12-14T01:14:14;2.83;;;0.57;;
49378;SDS011;35254;47.990;-1.608;2023-12-14T01:16:39;1.23;;;0.68;;
49378;SDS011;35254;47.990;-1.608;2023-12-14T01:19:05;3.70;;;0.70;;
49378;SDS011;35254;47.990;-1.608;2023-12-14T01:21:31;2.17;;;0.70;;
49378;SDS011;35254;47.990;-1.608;2023-12-14T01:23:57;0.93;;;0.60;;
49378;SDS011;35254;47.990;-1.608;2023-12-14T01:26:23;4.38;;;0.82;;
49378;SDS011;35254;47.990;-1.608;2023-12-14T01:28:48;1.40;;;0.60;;
49378;SDS011;35254;47.990;-1.608;2023-12-14T01:31:14;0.57;;;0.50;;
49378;SDS011;35254;47.990;-1.608;2023-12-14T01:33:41;2.55;;;0.70;;
49378;SDS011;35254;47.990;-1.608;2023-12-14T01:36:06;2.33;;;1.05;;
49378;SDS011;35254;47.990;-1.608;2023-12-14T01:38:32;3.60;;;0.98;;
49378;SDS011;35254;47.990;-1.608;2023-12-14T01:40:58;2.28;;;0.63;;
49378;SDS011;35254;47.990;-1.608;2023-12-14T01:43:24;7.95;;;1.63;;
49378;SDS011;35254;47.990;-1.608;2023-12-14T01:45:50;4.38;;;0.63;;
49378;SDS011;35254;47.990;-1.608;2023-12-14T01:48:15;4.10;;;0.80;;
49378;SDS011;35254;47.990;-1.608;2023-12-14T01:50:41;2.60;;;0.88;;
49378;SDS011;35254;47.990;-1.608;2023-12-14T01:53:07;6.82;;;1.80;;
49378;SDS011;35254;47.990;-1.608;2023-12-14T01:55:32;6.05;;;0.73;;
49378;SDS011;35254;47.990;-1.608;2023-12-14T01:57:59;1.63;;;0.60;;
49378;SDS011;35254;47.990;-1.608;2023-12-14T02:03:06;3.47;;;0.70;;
49378;SDS011;35254;47.990;-1.608;2023-12-14T02:05:31;0.95;;;0.80;;
49378;SDS011;35254;47.990;-1.608;2023-12-14T02:07:57;5.05;;;0.65;;
49378;SDS011;35254;47.990;-1.608;2023-12-14T02:10:23;1.50;;;0.55;;
49378;SDS011;35254;47.990;-1.608;2023-12-14T02:12:49;4.32;;;0.90;;
49378;SDS011;35254;47.990;-1.608;2023-12-14T02:15:14;2.65;;;0.68;;
49378;SDS011;35254;47.990;-1.608;2023-12-14T02:17:40;3.20;;;0.70;;
49378;SDS011;35254;47.990;-1.608;2023-12-14T02:20:06;10.75;;;0.80;;
49378;SDS011;35254;47.990;-1.608;2023-12-14T02:22:33;1.95;;;0.65;;
49378;SDS011;35254;47.990;-1.608;2023-12-14T02:25:15;2.10;;;0.60;;
49378;SDS011;35254;47.990;-1.608;2023-12-14T02:27:41;2.78;;;0.70;;
49378;SDS011;35254;47.990;-1.608;2023-12-14T02:30:07;0.60;;;0.60;;
49378;SDS011;35254;47.990;-1.608;2023-12-14T02:32:33;2.88;;;1.00;;
49378;SDS011;35254;47.990;-1.608;2023-12-14T02:34:59;1.15;;;0.50;;
49378;SDS011;35254;47.990;-1.608;2023-12-14T02:37:25;1.30;;;0.75;;
49378;SDS011;35254;47.990;-1.608;2023-12-14T02:39:50;0.85;;;0.52;;
49378;SDS011;35254;47.990;-1.608;2023-12-14T02:42:16;1.10;;;0.60;;
49378;SDS011;35254;47.990;-1.608;2023-12-14T02:44:42;1.08;;;0.60;;
49378;SDS011;35254;47.990;-1.608;2023-12-14T02:47:07;3.40;;;0.65;;
49378;SDS011;35254;47.990;-1.608;2023-12-14T02:49:33;1.90;;;0.70;;
49378;SDS011;35254;47.990;-1.608;2023-12-14T02:51:58;1.90;;;0.75;;
49378;SDS011;35254;47.990;-1.608;2023-12-14T02:54:24;3.33;;;0.90;;
49378;SDS011;35254;47.990;-1.608;2023-12-14T02:56:50;1.55;;;0.40;;
49378;SDS011;35254;47.990;-1.608;2023-12-14T02:59:15;2.95;;;0.82;;
49378;SDS011;35254;47.990;-1.608;2023-12-14T03:01:41;2.92;;;0.80;;
49378;SDS011;35254;47.990;-1.608;2023-12-14T03:04:07;0.88;;;0.73;;
49378;SDS011;35254;47.990;-1.608;2023-12-14T03:06:32;1.73;;;0.60;;
49378;SDS011;35254;47.990;-1.608;2023-12-14T03:08:58;1.92;;;0.80;;
49378;SDS011;35254;47.990;-1.608;2023-12-14T03:11:24;2.60;;;0.80;;
49378;SDS011;35254;47.990;-1.608;2023-12-14T03:13:50;1.40;;;0.70;;
49378;SDS011;35254;47.990;-1.608;2023-12-14T03:16:16;2.90;;;0.75;;
49378;SDS011;35254;47.990;-1.608;2023-12-14T03:18:42;3.78;;;0.90;;
49378;SDS011;35254;47.990;-1.608;2023-12-14T03:21:08;3.42;;;0.90;;
49378;SDS011;35254;47.990;-1.608;2023-12-14T03:23:34;1.27;;;0.90;;
49378;SDS011;35254;47.990;-1.608;2023-12-14T03:26:00;7.03;;;0.75;;
49378;SDS011;35254;47.990;-1.608;2023-12-14T03:28:26;1.85;;;1.08;;
49378;SDS011;35254;47.990;-1.608;2023-12-14T03:30:52;1.67;;;0.75;;
49378;SDS011;35254;47.990;-1.608;2023-12-14T03:33:18;3.42;;;0.80;;
49378;SDS011;35254;47.990;-1.608;2023-12-14T03:35:44;4.82;;;0.90;;
49378;SDS011;35254;47.990;-1.608;2023-12-14T03:38:11;4.53;;;1.27;;
49378;SDS011;35254;47.990;-1.608;2023-12-14T03:40:40;3.38;;;0.80;;
49378;SDS011;35254;47.990;-1.608;2023-12-14T03:43:06;1.65;;;0.75;;
49378;SDS011;35254;47.990;-1.608;2023-12-14T03:45:31;1.13;;;0.60;;
49378;SDS011;35254;47.990;-1.608;2023-12-14T03:47:57;1.50;;;0.45;;
49378;SDS011;35254;47.990;-1.608;2023-12-14T03:50:23;1.63;;;0.80;;
49378;SDS011;35254;47.990;-1.608;2023-12-14T03:52:48;1.75;;;0.73;;
49378;SDS011;35254;47.990;-1.608;2023-12-14T03:55:14;1.48;;;0.90;;
49378;SDS011;35254;47.990;-1.608;2023-12-14T03:57:40;3.03;;;0.85;;
49378;SDS011;35254;47.990;-1.608;2023-12-14T04:00:09;3.85;;;0.70;;
49378;SDS011;35254;47.990;-1.608;2023-12-14T04:02:35;2.10;;;0.73;;
49378;SDS011;35254;47.990;-1.608;2023-12-14T04:05:01;2.88;;;1.08;;
49378;SDS011;35254;47.990;-1.608;2023-12-14T04:07:26;2.42;;;0.88;;
49378;SDS011;35254;47.990;-1.608;2023-12-14T04:09:52;1.33;;;0.55;;
49378;SDS011;35254;47.990;-1.608;2023-12-14T04:12:18;0.85;;;0.50;;
49378;SDS011;35254;47.990;-1.608;2023-12-14T04:14:43;1.92;;;0.50;;
49378;SDS011;35254;47.990;-1.608;2023-12-14T04:17:10;2.88;;;0.80;;
49378;SDS011;35254;47.990;-1.608;2023-12-14T04:19:38;1.08;;;0.85;;
49378;SDS011;35254;47.990;-1.608;2023-12-14T04:22:04;2.33;;;0.75;;
49378;SDS011;35254;47.990;-1.608;2023-12-14T04:24:30;2.42;;;0.82;;
49378;SDS011;35254;47.990;-1.608;2023-12-14T04:26:55;0.70;;;0.43;;
49378;SDS011;35254;47.990;-1.608;2023-12-14T04:29:21;3.38;;;0.68;;
49378;SDS011;35254;47.990;-1.608;2023-12-14T04:31:47;2.92;;;0.88;;
49378;SDS011;35254;47.990;-1.608;2023-12-14T04:34:13;4.68;;;0.90;;
49378;SDS011;35254;47.990;-1.608;2023-12-14T04:36:41;3.53;;;0.90;;
49378;SDS011;35254;47.990;-1.608;2023-12-14T04:39:07;1.42;;;0.68;;
49378;SDS011;35254;47.990;-1.608;2023-12-14T04:41:33;3.10;;;1.13;;
49378;SDS011;35254;47.990;-1.608;2023-12-14T04:43:59;1.58;;;0.70;;
49378;SDS011;35254;47.990;-1.608;2023-12-14T04:46:24;3.13;;;0.75;;
49378;SDS011;35254;47.990;-1.608;2023-12-14T04:48:50;2.28;;;0.70;;
49378;SDS011;35254;47.990;-1.608;2023-12-14T04:51:15;1.10;;;0.73;;
49378;SDS011;35254;47.990;-1.608;2023-12-14T04:53:41;1.23;;;0.70;;
49378;SDS011;35254;47.990;-1.608;2023-12-14T04:56:13;0.85;;;0.57;;
49378;SDS011;35254;47.990;-1.608;2023-12-14T04:58:39;1.85;;;0.55;;
49378;SDS011;35254;47.990;-1.608;2023-12-14T05:01:05;0.85;;;0.38;;
49378;SDS011;35254;47.990;-1.608;2023-12-14T05:03:31;0.57;;;0.40;;
49378;SDS011;35254;47.990;-1.608;2023-12-14T05:05:58;1.17;;;0.50;;
49378;SDS011;35254;47.990;-1.608;2023-12-14T05:08:23;1.35;;;0.68;;
49378;SDS011;35254;47.990;-1.608;2023-12-14T05:10:49;3.85;;;0.55;;
49378;SDS011;35254;47.990;-1.608;2023-12-14T05:13:15;0.95;;;0.50;;
49378;SDS011;35254;47.990;-1.608;2023-12-14T05:15:40;0.73;;;0.50;;
49378;SDS011;35254;47.990;-1.608;2023-12-14T05:18:06;1.35;;;0.52;;
49378;SDS011;35254;47.990;-1.608;2023-12-14T05:20:32;2.00;;;0.75;;
49378;SDS011;35254;47.990;-1.608;2023-12-14T05:22:59;2.50;;;0.50;;
49378;SDS011;35254;47.990;-1.608;2023-12-14T05:25:24;2.30;;;0.70;;
49378;SDS011;35254;47.990;-1.608;2023-12-14T05:27:50;2.50;;;0.65;;
49378;SDS011;35254;47.990;-1.608;2023-12-14T05:30:16;1.20;;;0.65;;
49378;SDS011;35254;47.990;-1.608;2023-12-14T05:32:42;1.00;;;0.43;;
49378;SDS011;35254;47.990;-1.608;2023-12-14T05:35:08;1.05;;;0.55;;
49378;SDS011;35254;47.990;-1.608;2023-12-14T05:37:34;1.10;;;0.20;;
49378;SDS011;35254;47.990;-1.608;2023-12-14T05:40:01;1.65;;;0.70;;
49378;SDS011;35254;47.990;-1.608;2023-12-14T05:42:27;1.15;;;0.63;;
49378;SDS011;35254;47.990;-1.608;2023-12-14T05:44:53;2.47;;;0.70;;
49378;SDS011;35254;47.990;-1.608;2023-12-14T05:47:19;0.95;;;0.55;;
49378;SDS011;35254;47.990;-1.608;2023-12-14T05:49:44;2.35;;;0.60;;
49378;SDS011;35254;47.990;-1.608;2023-12-14T05:52:10;2.10;;;1.45;;
49378;SDS011;35254;47.990;-1.608;2023-12-14T05:54:37;1.45;;;0.63;;
49378;SDS011;35254;47.990;-1.608;2023-12-14T05:57:03;0.93;;;0.55;;
49378;SDS011;35254;47.990;-1.608;2023-12-14T05:59:29;1.67;;;1.42;;
49378;SDS011;35254;47.990;-1.608;2023-12-14T06:01:58;3.05;;;1.10;;
49378;SDS011;35254;47.990;-1.608;2023-12-14T06:04:24;0.40;;;0.40;;
49378;SDS011;35254;47.990;-1.608;2023-12-14T06:06:50;2.17;;;0.60;;
49378;SDS011;35254;47.990;-1.608;2023-12-14T06:09:16;0.85;;;0.52;;
49378;SDS011;35254;47.990;-1.608;2023-12-14T06:11:44;2.22;;;0.80;;
49378;SDS011;35254;47.990;-1.608;2023-12-14T06:14:10;1.95;;;0.90;;
49378;SDS011;35254;47.990;-1.608;2023-12-14T06:16:35;1.98;;;0.88;;
49378;SDS011;35254;47.990;-1.608;2023-12-14T06:19:01;2.00;;;0.70;;
49378;SDS011;35254;47.990;-1.608;2023-12-14T06:21:26;0.95;;;0.57;;
49378;SDS011;35254;47.990;-1.608;2023-12-14T06:23:54;0.65;;;0.52;;
49378;SDS011;35254;47.990;-1.608;2023-12-14T06:26:20;2.55;;;0.85;;
49378;SDS011;35254;47.990;-1.608;2023-12-14T06:28:46;1.73;;;0.50;;
49378;SDS011;35254;47.990;-1.608;2023-12-14T06:31:12;1.30;;;0.80;;
49378;SDS011;35254;47.990;-1.608;2023-12-14T06:33:39;1.75;;;0.60;;
49378;SDS011;35254;47.990;-1.608;2023-12-14T06:36:05;3.50;;;0.77;;
49378;SDS011;35254;47.990;-1.608;2023-12-14T06:38:32;4.03;;;0.88;;
49378;SDS011;35254;47.990;-1.608;2023-12-14T06:40:58;1.20;;;0.40;;
49378;SDS011;35254;47.990;-1.608;2023-12-14T06:43:24;1.17;;;0.60;;
49378;SDS011;35254;47.990;-1.608;2023-12-14T06:45:49;1.27;;;0.40;;
49378;SDS011;35254;47.990;-1.608;2023-12-14T06:48:15;2.53;;;1.00;;
49378;SDS011;35254;47.990;-1.608;2023-12-14T06:50:41;0.65;;;0.40;;
49378;SDS011;35254;47.990;-1.608;2023-12-14T06:53:06;2.88;;;0.50;;
49378;SDS011;35254;47.990;-1.608;2023-12-14T06:55:32;1.52;;;0.80;;
49378;SDS011;35254;47.990;-1.608;2023-12-14T06:57:58;1.52;;;0.55;;
49378;SDS011;35254;47.990;-1.608;2023-12-14T07:00:23;2.63;;;0.75;;
49378;SDS011;35254;47.990;-1.608;2023-12-14T07:02:49;4.50;;;0.75;;
49378;SDS011;35254;47.990;-1.608;2023-12-14T07:05:14;3.13;;;0.38;;
49378;SDS011;35254;47.990;-1.608;2023-12-14T07:07:40;0.60;;;0.50;;
49378;SDS011;35254;47.990;-1.608;2023-12-14T07:10:06;3.75;;;0.52;;
49378;SDS011;35254;47.990;-1.608;2023-12-14T07:12:32;1.63;;;0.60;;
49378;SDS011;35254;47.990;-1.608;2023-12-14T07:14:58;0.98;;;0.80;;
49378;SDS011;35254;47.990;-1.608;2023-12-14T07:17:23;3.28;;;0.70;;
49378;SDS011;35254;47.990;-1.608;2023-12-14T07:19:50;2.03;;;0.80;;
49378;SDS011;35254;47.990;-1.608;2023-12-14T07:22:16;5.20;;;1.10;;
49378;SDS011;35254;47.990;-1.608;2023-12-14T07:24:42;2.05;;;0.60;;
49378;SDS011;35254;47.990;-1.608;2023-12-14T07:27:08;2.03;;;0.77;;
49378;SDS011;35254;47.990;-1.608;2023-12-14T07:29:33;1.65;;;0.68;;
49378;SDS011;35254;47.990;-1.608;2023-12-14T07:31:59;2.40;;;0.50;;
49378;SDS011;35254;47.990;-1.608;2023-12-14T07:34:24;1.77;;;0.68;;
49378;SDS011;35254;47.990;-1.608;2023-12-14T07:36:53;5.15;;;1.08;;
49378;SDS011;35254;47.990;-1.608;2023-12-14T07:39:19;2.70;;;0.55;;
49378;SDS011;35254;47.990;-1.608;2023-12-14T07:41:44;2.92;;;0.82;;
49378;SDS011;35254;47.990;-1.608;2023-12-14T07:44:10;3.45;;;0.73;;
49378;SDS011;35254;47.990;-1.608;2023-12-14T07:46:35;3.38;;;0.70;;
49378;SDS011;35254;47.990;-1.608;2023-12-14T07:49:06;5.88;;;0.80;;
49378;SDS011;35254;47.990;-1.608;2023-12-14T07:51:32;2.33;;;1.00;;
49378;SDS011;35254;47.990;-1.608;2023-12-14T07:53:57;8.25;;;3.33;;
49378;SDS011;35254;47.990;-1.608;2023-12-14T07:56:23;7.72;;;1.30;;
49378;SDS011;35254;47.990;-1.608;2023-12-14T07:58:52;5.90;;;0.98;;
49378;SDS011;35254;47.990;-1.608;2023-12-14T08:01:18;6.00;;;0.95;;
49378;SDS011;35254;47.990;-1.608;2023-12-14T08:03:44;2.28;;;0.73;;
49378;SDS011;35254;47.990;-1.608;2023-12-14T08:06:09;7.82;;;1.10;;
49378;SDS011;35254;47.990;-1.608;2023-12-14T08:08:35;6.85;;;1.23;;
49378;SDS011;35254;47.990;-1.608;2023-12-14T08:11:02;3.47;;;1.30;;
49378;SDS011;35254;47.990;-1.608;2023-12-14T08:13:29;6.95;;;1.25;;
49378;SDS011;35254;47.990;-1.608;2023-12-14T08:15:55;3.75;;;1.48;;
49378;SDS011;35254;47.990;-1.608;2023-12-14T08:18:20;3.63;;;1.27;;
49378;SDS011;35254;47.990;-1.608;2023-12-14T08:20:46;2.85;;;1.50;;
49378;SDS011;35254;47.990;-1.608;2023-12-14T08:23:11;2.20;;;1.08;;
49378;SDS011;35254;47.990;-1.608;2023-12-14T08:25:37;5.53;;;1.15;;
49378;SDS011;35254;47.990;-1.608;2023-12-14T08:28:03;4.43;;;1.27;;
49378;SDS011;35254;47.990;-1.608;2023-12-14T08:30:28;5.85;;;1.48;;
49378;SDS011;35254;47.990;-1.608;2023-12-14T08:32:54;4.68;;;1.77;;
49378;SDS011;35254;47.990;-1.608;2023-12-14T08:35:20;6.85;;;2.05;;
49378;SDS011;35254;47.990;-1.608;2023-12-14T08:37:45;2.42;;;1.50;;
49378;SDS011;35254;47.990;-1.608;2023-12-14T08:40:11;5.57;;;2.35;;
49378;SDS011;35254;47.990;-1.608;2023-12-14T08:42:37;5.38;;;1.40;;
49378;SDS011;35254;47.990;-1.608;2023-12-14T08:45:03;8.13;;;1.30;;
49378;SDS011;35254;47.990;-1.608;2023-12-14T08:47:28;6.13;;;1.00;;
49378;SDS011;35254;47.990;-1.608;2023-12-14T08:49:54;5.75;;;1.25;;
49378;SDS011;35254;47.990;-1.608;2023-12-14T08:52:20;6.93;;;2.05;;
49378;SDS011;35254;47.990;-1.608;2023-12-14T08:54:45;6.22;;;2.38;;
49378;SDS011;35254;47.990;-1.608;2023-12-14T08:57:11;4.22;;;1.60;;
49378;SDS011;35254;47.990;-1.608;2023-12-14T08:59:37;6.90;;;1.20;;
49378;SDS011;35254;47.990;-1.608;2023-12-14T09:02:02;10.02;;;1.73;;
49378;SDS011;35254;47.990;-1.608;2023-12-14T09:04:29;6.25;;;1.75;;
49378;SDS011;35254;47.990;-1.608;2023-12-14T09:06:54;6.55;;;1.27;;
49378;SDS011;35254;47.990;-1.608;2023-12-14T09:09:20;5.00;;;1.65;;
49378;SDS011;35254;47.990;-1.608;2023-12-14T09:11:45;7.85;;;1.95;;
49378;SDS011;35254;47.990;-1.608;2023-12-14T09:14:11;2.35;;;1.05;;
49378;SDS011;35254;47.990;-1.608;2023-12-14T09:16:37;4.95;;;1.15;;
49378;SDS011;35254;47.990;-1.608;2023-12-14T09:19:02;7.80;;;2.17;;
49378;SDS011;35254;47.990;-1.608;2023-12-14T09:21:28;7.25;;;1.85;;
49378;SDS011;35254;47.990;-1.608;2023-12-14T09:23:53;5.80;;;1.65;;
49378;SDS011;35254;47.990;-1.608;2023-12-14T09:26:19;3.30;;;1.52;;
49378;SDS011;35254;47.990;-1.608;2023-12-14T09:28:45;5.30;;;1.55;;
49378;SDS011;35254;47.990;-1.608;2023-12-14T09:31:10;7.10;;;2.00;;
49378;SDS011;35254;47.990;-1.608;2023-12-14T09:33:36;5.18;;;1.38;;
49378;SDS011;35254;47.990;-1.608;2023-12-14T09:36:02;8.70;;;1.92;;
49378;SDS011;35254;47.990;-1.608;2023-12-14T09:38:28;6.05;;;1.73;;
49378;SDS011;35254;47.990;-1.608;2023-12-14T09:40:53;12.88;;;2.20;;
49378;SDS011;35254;47.990;-1.608;2023-12-14T09:43:19;14.75;;;2.33;;
49378;SDS011;35254;47.990;-1.608;2023-12-14T09:45:46;14.40;;;2.17;;
49378;SDS011;35254;47.990;-1.608;2023-12-14T09:48:14;4.25;;;1.95;;
49378;SDS011;35254;47.990;-1.608;2023-12-14T09:50:41;10.65;;;2.00;;
49378;SDS011;35254;47.990;-1.608;2023-12-14T09:53:07;6.60;;;2.15;;
49378;SDS011;35254;47.990;-1.608;2023-12-14T09:55:33;8.10;;;2.08;;
49378;SDS011;35254;47.990;-1.608;2023-12-14T09:57:59;6.78;;;1.70;;
49378;SDS011;35254;47.990;-1.608;2023-12-14T10:00:34;5.93;;;1.75;;
49378;SDS011;35254;47.990;-1.608;2023-12-14T10:03:20;7.40;;;2.25;;
49378;SDS011;35254;47.990;-1.608;2023-12-14T10:05:48;7.30;;;2.30;;
49378;SDS011;35254;47.990;-1.608;2023-12-14T10:08:15;7.30;;;2.20;;
49378;SDS011;35254;47.990;-1.608;2023-12-14T10:10:41;7.10;;;2.03;;
49378;SDS011;35254;47.990;-1.608;2023-12-14T10:13:08;3.70;;;1.38;;
49378;SDS011;35254;47.990;-1.608;2023-12-14T10:15:46;5.72;;;1.67;;
49378;SDS011;35254;47.990;-1.608;2023-12-14T10:18:22;6.20;;;1.33;;
49378;SDS011;35254;47.990;-1.608;2023-12-14T10:20:51;3.95;;;1.38;;
49378;SDS011;35254;47.990;-1.608;2023-12-14T10:23:17;4.30;;;1.67;;
49378;SDS011;35254;47.990;-1.608;2023-12-14T10:25:43;2.42;;;1.13;;
49378;SDS011;35254;47.990;-1.608;2023-12-14T10:28:12;7.45;;;1.80;;
49378;SDS011;35254;47.990;-1.608;2023-12-14T10:30:41;4.43;;;1.30;;
49378;SDS011;35254;47.990;-1.608;2023-12-14T10:33:07;2.88;;;1.02;;
49378;SDS011;35254;47.990;-1.608;2023-12-14T10:35:34;2.50;;;1.73;;
49378;SDS011;35254;47.990;-1.608;2023-12-14T10:38:03;2.60;;;1.17;;
49378;SDS011;35254;47.990;-1.608;2023-12-14T10:40:34;1.17;;;0.90;;
49378;SDS011;35254;47.990;-1.608;2023-12-14T10:58:44;2.58;;;1.52;;
49378;SDS011;35254;47.990;-1.608;2023-12-14T11:01:13;2.25;;;0.98;;
49378;SDS011;35254;47.990;-1.608;2023-12-14T11:09:12;5.63;;;1.20;;
49378;SDS011;35254;47.990;-1.608;2023-12-14T11:11:40;2.47;;;0.90;;
49378;SDS011;35254;47.990;-1.608;2023-12-14T11:14:07;2.55;;;1.42;;
49378;SDS011;35254;47.990;-1.608;2023-12-14T11:16:35;1.95;;;1.10;;
49378;SDS011;35254;47.990;-1.608;2023-12-14T11:19:44;2.45;;;0.98;;
49378;SDS011;35254;47.990;-1.608;2023-12-14T11:24:21;2.42;;;1.27;;
49378;SDS011;35254;47.990;-1.608;2023-12-14T11:26:50;4.88;;;1.00;;
49378;SDS011;35254;47.990;-1.608;2023-12-14T11:29:19;6.93;;;1.52;;
49378;SDS011;35254;47.990;-1.608;2023-12-14T11:34:13;4.85;;;1.20;;
49378;SDS011;35254;47.990;-1.608;2023-12-14T11:36:40;2.55;;;1.27;;
49378;SDS011;35254;47.990;-1.608;2023-12-14T11:39:09;3.15;;;0.80;;
49378;SDS011;35254;47.990;-1.608;2023-12-14T11:41:36;1.75;;;1.10;;
49378;SDS011;35254;47.990;-1.608;2023-12-14T11:44:03;3.88;;;1.35;;
49378;SDS011;35254;47.990;-1.608;2023-12-14T11:46:29;4.15;;;1.15;;
49378;SDS011;35254;47.990;-1.608;2023-12-14T11:48:56;2.97;;;1.00;;
49378;SDS011;35254;47.990;-1.608;2023-12-14T11:51:23;2.90;;;1.08;;
49378;SDS011;35254;47.990;-1.608;2023-12-14T11:53:50;2.20;;;1.20;;
49378;SDS011;35254;47.990;-1.608;2023-12-14T11:56:19;1.80;;;1.13;;
49378;SDS011;35254;47.990;-1.608;2023-12-14T11:58:48;1.38;;;1.02;;
49378;SDS011;35254;47.990;-1.608;2023-12-14T12:01:15;1.50;;;0.90;;
49378;SDS011;35254;47.990;-1.608;2023-12-14T12:03:42;3.50;;;1.10;;
49378;SDS011;35254;47.990;-1.608;2023-12-14T12:06:21;2.35;;;1.30;;
49378;SDS011;35254;47.990;-1.608;2023-12-14T12:08:54;3.92;;;1.20;;
49378;SDS011;35254;47.990;-1.608;2023-12-14T12:11:20;2.30;;;1.38;;
49378;SDS011;35254;47.990;-1.608;2023-12-14T12:13:54;2.38;;;1.38;;
49378;SDS011;35254;47.990;-1.608;2023-12-14T12:16:21;1.65;;;1.30;;
49378;SDS011;35254;47.990;-1.608;2023-12-14T12:18:46;2.75;;;1.30;;
49378;SDS011;35254;47.990;-1.608;2023-12-14T12:21:12;2.15;;;1.13;;
49378;SDS011;35254;47.990;-1.608;2023-12-14T12:23:38;3.92;;;1.55;;
49378;SDS011;35254;47.990;-1.608;2023-12-14T12:26:06;2.58;;;1.33;;
49378;SDS011;35254;47.990;-1.608;2023-12-14T12:28:32;4.97;;;1.00;;
49378;SDS011;35254;47.990;-1.608;2023-12-14T12:30:57;3.13;;;1.15;;
49378;SDS011;35254;47.990;-1.608;2023-12-14T12:33:24;3.78;;;1.77;;
49378;SDS011;35254;47.990;-1.608;2023-12-14T12:35:51;3.00;;;1.00;;
49378;SDS011;35254;47.990;-1.608;2023-12-14T12:38:19;1.70;;;1.10;;
49378;SDS011;35254;47.990;-1.608;2023-12-14T12:40:45;3.03;;;1.10;;
49378;SDS011;35254;47.990;-1.608;2023-12-14T12:43:11;1.45;;;0.85;;
49378;SDS011;35254;47.990;-1.608;2023-12-14T12:45:39;3.38;;;1.45;;
49378;SDS011;35254;47.990;-1.608;2023-12-14T12:48:04;2.42;;;1.30;;
49378;SDS011;35254;47.990;-1.608;2023-12-14T12:50:31;3.65;;;1.38;;
49378;SDS011;35254;47.990;-1.608;2023-12-14T12:52:58;3.30;;;0.90;;
49378;SDS011;35254;47.990;-1.608;2023-12-14T12:55:23;1.80;;;0.90;;
49378;SDS011;35254;47.990;-1.608;2023-12-14T12:57:49;1.77;;;1.05;;
49378;SDS011;35254;47.990;-1.608;2023-12-14T13:00:15;1.65;;;1.00;;
49378;SDS011;35254;47.990;-1.608;2023-12-14T13:02:41;2.05;;;1.05;;
49378;SDS011;35254;47.990;-1.608;2023-12-14T13:05:08;4.35;;;1.23;;
49378;SDS011;35254;47.990;-1.608;2023-12-14T13:07:34;2.78;;;1.15;;
49378;SDS011;35254;47.990;-1.608;2023-12-14T13:10:02;4.03;;;0.90;;
49378;SDS011;35254;47.990;-1.608;2023-12-14T13:12:29;2.35;;;0.82;;
49378;SDS011;35254;47.990;-1.608;2023-12-14T13:14:55;1.13;;;1.00;;
49378;SDS011;35254;47.990;-1.608;2023-12-14T13:17:20;3.40;;;2.22;;
49378;SDS011;35254;47.990;-1.608;2023-12-14T13:19:46;3.85;;;1.55;;
49378;SDS011;35254;47.990;-1.608;2023-12-14T13:22:12;1.30;;;0.90;;
49378;SDS011;35254;47.990;-1.608;2023-12-14T13:24:37;1.20;;;0.82;;
49378;SDS011;35254;47.990;-1.608;2023-12-14T13:27:03;1.35;;;1.00;;
49378;SDS011;35254;47.990;-1.608;2023-12-14T13:29:29;3.22;;;0.90;;
49378;SDS011;35254;47.990;-1.608;2023-12-14T13:31:57;3.30;;;1.08;;
49378;SDS011;35254;47.990;-1.608;2023-12-14T13:34:22;2.55;;;1.05;;
49378;SDS011;35254;47.990;-1.608;2023-12-14T13:36:48;3.13;;;0.90;;
49378;SDS011;35254;47.990;-1.608;2023-12-14T13:39:14;4.43;;;1.25;;
49378;SDS011;35254;47.990;-1.608;2023-12-14T13:41:40;1.70;;;0.93;;
49378;SDS011;35254;47.990;-1.608;2023-12-14T13:44:06;2.05;;;1.20;;
49378;SDS011;35254;47.990;-1.608;2023-12-14T13:46:31;2.25;;;1.13;;
49378;SDS011;35254;47.990;-1.608;2023-12-14T13:48:57;2.08;;;0.75;;
49378;SDS011;35254;47.990;-1.608;2023-12-14T13:51:22;3.05;;;1.02;;
49378;SDS011;35254;47.990;-1.608;2023-12-14T13:53:48;5.40;;;1.00;;
49378;SDS011;35254;47.990;-1.608;2023-12-14T13:56:14;2.88;;;1.00;;
49378;SDS011;35254;47.990;-1.608;2023-12-14T13:58:39;2.75;;;1.00;;
49378;SDS011;35254;47.990;-1.608;2023-12-14T14:01:05;1.10;;;0.93;;
49378;SDS011;35254;47.990;-1.608;2023-12-14T14:03:32;1.55;;;0.80;;
49378;SDS011;35254;47.990;-1.608;2023-12-14T14:06:02;1.77;;;0.77;;
49378;SDS011;35254;47.990;-1.608;2023-12-14T14:08:28;1.52;;;0.90;;
49378;SDS011;35254;47.990;-1.608;2023-12-14T14:10:56;2.38;;;0.88;;
49378;SDS011;35254;47.990;-1.608;2023-12-14T14:13:23;2.35;;;1.00;;
49378;SDS011;35254;47.990;-1.608;2023-12-14T14:15:48;1.88;;;0.90;;
49378;SDS011;35254;47.990;-1.608;2023-12-14T14:18:14;1.75;;;1.38;;
49378;SDS011;35254;47.990;-1.608;2023-12-14T14:20:40;3.03;;;0.73;;
49378;SDS011;35254;47.990;-1.608;2023-12-14T14:23:05;0.88;;;0.70;;
49378;SDS011;35254;47.990;-1.608;2023-12-14T14:25:31;1.30;;;1.00;;
49378;SDS011;35254;47.990;-1.608;2023-12-14T14:27:57;1.25;;;0.80;;
49378;SDS011;35254;47.990;-1.608;2023-12-14T14:30:23;2.83;;;1.00;;
49378;SDS011;35254;47.990;-1.608;2023-12-14T14:32:49;1.20;;;1.10;;
49378;SDS011;35254;47.990;-1.608;2023-12-14T14:35:15;2.63;;;0.70;;
49378;SDS011;35254;47.990;-1.608;2023-12-14T14:37:41;2.97;;;0.88;;
49378;SDS011;35254;47.990;-1.608;2023-12-14T14:40:10;3.60;;;1.00;;
49378;SDS011;35254;47.990;-1.608;2023-12-14T14:42:39;2.50;;;1.00;;
49378;SDS011;35254;47.990;-1.608;2023-12-14T14:45:06;2.10;;;1.13;;
49378;SDS011;35254;47.990;-1.608;2023-12-14T14:47:33;3.63;;;1.10;;
49378;SDS011;35254;47.990;-1.608;2023-12-14T14:49:59;2.58;;;1.77;;
49378;SDS011;35254;47.990;-1.608;2023-12-14T14:52:32;1.37;;;0.80;;
49378;SDS011;35254;47.990;-1.608;2023-12-14T14:54:58;1.92;;;0.80;;
49378;SDS011;35254;47.990;-1.608;2023-12-14T14:57:24;1.13;;;0.70;;